sensor_id;sensor_type;location;lat;lon;timestamp;temperature;humidity
22112;DHT22;11222;50.872;4.312;2022-09-09T00:02:19;16.70;99.90
22112;DHT22;11222;50.872;4.312;2022-09-09T00:07:48;16.70;99.90
22112;DHT22;11222;50.872;4.312;2022-09-09T00:10:36;16.60;99.90
22112;DHT22;11222;50.872;4.312;2022-09-09T00:13:26;16.60;99.90
22112;DHT22;11222;50.872;4.312;2022-09-09T00:18:56;16.50;99.90
22112;DHT22;11222;50.872;4.312;2022-09-09T00:21:35;16.50;99.90
22112;DHT22;11222;50.872;4.312;2022-09-09T00:24:10;16.50;99.90
22112;DHT22;11222;50.872;4.312;2022-09-09T00:26:47;16.40;99.90
22112;DHT22;11222;50.872;4.312;2022-09-09T00:31:57;16.40;99.90
22112;DHT22;11222;50.872;4.312;2022-09-09T00:34:25;16.30;99.90
22112;DHT22;11222;50.872;4.312;2022-09-09T00:36:53;16.30;99.90
22112;DHT22;11222;50.872;4.312;2022-09-09T00:39:38;16.40;99.90
22112;DHT22;11222;50.872;4.312;2022-09-09T00:45:02;16.60;99.90
22112;DHT22;11222;50.872;4.312;2022-09-09T00:53:04;16.60;99.90
22112;DHT22;11222;50.872;4.312;2022-09-09T00:55:49;16.50;99.90
22112;DHT22;11222;50.872;4.312;2022-09-09T00:58:19;16.50;99.90
22112;DHT22;11222;50.872;4.312;2022-09-09T01:00:50;16.50;99.90
22112;DHT22;11222;50.872;4.312;2022-09-09T01:06:20;16.50;99.90
22112;DHT22;11222;50.872;4.312;2022-09-09T01:09:18;16.40;99.90
22112;DHT22;11222;50.872;4.312;2022-09-09T01:12:01;16.40;99.90
22112;DHT22;11222;50.872;4.312;2022-09-09T01:17:11;16.40;99.90
22112;DHT22;11222;50.872;4.312;2022-09-09T01:27:59;16.50;99.90
22112;DHT22;11222;50.872;4.312;2022-09-09T01:30:26;16.50;99.90
22112;DHT22;11222;50.872;4.312;2022-09-09T01:32:57;16.40;99.90
22112;DHT22;11222;50.872;4.312;2022-09-09T01:38:17;16.40;99.90
22112;DHT22;11222;50.872;4.312;2022-09-09T01:40:43;16.40;99.90
22112;DHT22;11222;50.872;4.312;2022-09-09T01:43:09;16.40;99.90
22112;DHT22;11222;50.872;4.312;2022-09-09T01:45:36;16.40;99.90
22112;DHT22;11222;50.872;4.312;2022-09-09T01:48:02;16.40;99.90
22112;DHT22;11222;50.872;4.312;2022-09-09T01:50:28;16.40;99.90
22112;DHT22;11222;50.872;4.312;2022-09-09T01:52:58;16.40;99.90
22112;DHT22;11222;50.872;4.312;2022-09-09T01:55:33;16.40;99.90
22112;DHT22;11222;50.872;4.312;2022-09-09T01:58:37;16.30;99.90
22112;DHT22;11222;50.872;4.312;2022-09-09T02:03:56;16.30;99.90
22112;DHT22;11222;50.872;4.312;2022-09-09T02:08:50;16.20;99.90
22112;DHT22;11222;50.872;4.312;2022-09-09T02:11:18;16.30;99.90
22112;DHT22;11222;50.872;4.312;2022-09-09T02:13:46;16.30;99.90
22112;DHT22;11222;50.872;4.312;2022-09-09T02:18:52;16.30;99.90
22112;DHT22;11222;50.872;4.312;2022-09-09T02:21:18;16.30;99.90
22112;DHT22;11222;50.872;4.312;2022-09-09T02:23:47;16.30;99.90
22112;DHT22;11222;50.872;4.312;2022-09-09T02:26:14;16.30;99.90
22112;DHT22;11222;50.872;4.312;2022-09-09T02:28:46;16.30;99.90
22112;DHT22;11222;50.872;4.312;2022-09-09T02:31:16;16.30;99.90
22112;DHT22;11222;50.872;4.312;2022-09-09T02:33:47;16.20;99.90
22112;DHT22;11222;50.872;4.312;2022-09-09T02:36:15;16.20;99.90
22112;DHT22;11222;50.872;4.312;2022-09-09T02:38:46;16.10;99.90
22112;DHT22;11222;50.872;4.312;2022-09-09T02:41:17;16.10;99.90
22112;DHT22;11222;50.872;4.312;2022-09-09T02:43:44;16.10;99.90
22112;DHT22;11222;50.872;4.312;2022-09-09T02:49:03;16.00;99.90
22112;DHT22;11222;50.872;4.312;2022-09-09T02:56:53;16.10;99.90
22112;DHT22;11222;50.872;4.312;2022-09-09T02:59:22;16.10;99.90
22112;DHT22;11222;50.872;4.312;2022-09-09T03:01:50;16.10;99.90
22112;DHT22;11222;50.872;4.312;2022-09-09T03:04:16;16.10;99.90
22112;DHT22;11222;50.872;4.312;2022-09-09T03:06:42;16.10;99.90
22112;DHT22;11222;50.872;4.312;2022-09-09T03:09:08;16.00;99.90
22112;DHT22;11222;50.872;4.312;2022-09-09T03:11:36;16.00;99.90
22112;DHT22;11222;50.872;4.312;2022-09-09T03:14:02;16.00;99.90
22112;DHT22;11222;50.872;4.312;2022-09-09T03:16:28;16.00;99.90
22112;DHT22;11222;50.872;4.312;2022-09-09T03:18:54;15.90;99.90
22112;DHT22;11222;50.872;4.312;2022-09-09T03:21:19;15.90;99.90
22112;DHT22;11222;50.872;4.312;2022-09-09T03:23:45;15.90;99.90
22112;DHT22;11222;50.872;4.312;2022-09-09T03:26:11;15.90;99.90
22112;DHT22;11222;50.872;4.312;2022-09-09T03:28:37;16.00;99.90
22112;DHT22;11222;50.872;4.312;2022-09-09T03:31:04;16.00;99.90
22112;DHT22;11222;50.872;4.312;2022-09-09T03:33:30;16.00;99.90
22112;DHT22;11222;50.872;4.312;2022-09-09T03:35:56;16.10;99.90
22112;DHT22;11222;50.872;4.312;2022-09-09T03:38:25;16.00;99.90
22112;DHT22;11222;50.872;4.312;2022-09-09T03:40:55;16.00;99.90
22112;DHT22;11222;50.872;4.312;2022-09-09T03:43:23;16.00;99.90
22112;DHT22;11222;50.872;4.312;2022-09-09T03:45:49;16.00;99.90
22112;DHT22;11222;50.872;4.312;2022-09-09T03:48:17;16.00;99.90
22112;DHT22;11222;50.872;4.312;2022-09-09T03:50:47;15.90;99.90
22112;DHT22;11222;50.872;4.312;2022-09-09T03:53:15;15.90;99.90
22112;DHT22;11222;50.872;4.312;2022-09-09T03:55:45;16.00;99.90
22112;DHT22;11222;50.872;4.312;2022-09-09T03:58:15;16.00;99.90
22112;DHT22;11222;50.872;4.312;2022-09-09T04:00:41;16.10;99.90
22112;DHT22;11222;50.872;4.312;2022-09-09T04:03:10;16.10;99.90
22112;DHT22;11222;50.872;4.312;2022-09-09T04:05:36;16.20;99.90
22112;DHT22;11222;50.872;4.312;2022-09-09T04:08:08;16.20;99.90
22112;DHT22;11222;50.872;4.312;2022-09-09T04:10:34;16.20;99.90
22112;DHT22;11222;50.872;4.312;2022-09-09T04:13:03;16.30;99.90
22112;DHT22;11222;50.872;4.312;2022-09-09T04:15:29;16.30;99.90
22112;DHT22;11222;50.872;4.312;2022-09-09T04:17:55;16.30;99.90
22112;DHT22;11222;50.872;4.312;2022-09-09T04:20:21;16.30;99.90
22112;DHT22;11222;50.872;4.312;2022-09-09T04:22:47;16.20;99.90
22112;DHT22;11222;50.872;4.312;2022-09-09T04:25:13;16.30;99.90
22112;DHT22;11222;50.872;4.312;2022-09-09T04:27:39;16.30;99.90
22112;DHT22;11222;50.872;4.312;2022-09-09T04:30:06;16.20;99.90
22112;DHT22;11222;50.872;4.312;2022-09-09T04:32:33;16.20;99.90
22112;DHT22;11222;50.872;4.312;2022-09-09T04:34:59;16.00;99.90
22112;DHT22;11222;50.872;4.312;2022-09-09T04:37:24;16.00;99.90
22112;DHT22;11222;50.872;4.312;2022-09-09T04:39:50;15.90;99.90
22112;DHT22;11222;50.872;4.312;2022-09-09T04:42:16;15.90;99.90
22112;DHT22;11222;50.872;4.312;2022-09-09T04:44:44;15.90;99.90
22112;DHT22;11222;50.872;4.312;2022-09-09T04:47:10;16.00;99.90
22112;DHT22;11222;50.872;4.312;2022-09-09T04:49:36;15.90;99.90
22112;DHT22;11222;50.872;4.312;2022-09-09T04:52:03;16.00;99.90
22112;DHT22;11222;50.872;4.312;2022-09-09T04:54:29;16.00;99.90
22112;DHT22;11222;50.872;4.312;2022-09-09T04:56:55;15.90;99.90
22112;DHT22;11222;50.872;4.312;2022-09-09T04:59:21;16.00;99.90
22112;DHT22;11222;50.872;4.312;2022-09-09T05:01:48;15.90;99.90
22112;DHT22;11222;50.872;4.312;2022-09-09T05:04:15;15.90;99.90
22112;DHT22;11222;50.872;4.312;2022-09-09T05:06:41;15.90;99.90
22112;DHT22;11222;50.872;4.312;2022-09-09T05:09:08;15.90;99.90
22112;DHT22;11222;50.872;4.312;2022-09-09T05:11:34;15.90;99.90
22112;DHT22;11222;50.872;4.312;2022-09-09T05:14:04;15.90;99.90
22112;DHT22;11222;50.872;4.312;2022-09-09T05:16:30;15.90;99.90
22112;DHT22;11222;50.872;4.312;2022-09-09T05:18:55;15.90;99.90
22112;DHT22;11222;50.872;4.312;2022-09-09T05:21:23;15.90;99.90
22112;DHT22;11222;50.872;4.312;2022-09-09T05:23:49;15.90;99.90
22112;DHT22;11222;50.872;4.312;2022-09-09T05:26:18;16.00;99.90
22112;DHT22;11222;50.872;4.312;2022-09-09T05:28:45;16.10;99.90
22112;DHT22;11222;50.872;4.312;2022-09-09T05:31:13;16.10;99.90
22112;DHT22;11222;50.872;4.312;2022-09-09T05:33:40;16.10;99.90
22112;DHT22;11222;50.872;4.312;2022-09-09T05:36:10;16.10;99.90
22112;DHT22;11222;50.872;4.312;2022-09-09T05:38:38;16.20;99.90
22112;DHT22;11222;50.872;4.312;2022-09-09T05:41:05;16.30;99.90
22112;DHT22;11222;50.872;4.312;2022-09-09T05:43:30;16.20;99.90
22112;DHT22;11222;50.872;4.312;2022-09-09T05:46:19;16.20;99.90
22112;DHT22;11222;50.872;4.312;2022-09-09T05:48:46;16.20;99.90
22112;DHT22;11222;50.872;4.312;2022-09-09T05:51:15;16.20;99.90
22112;DHT22;11222;50.872;4.312;2022-09-09T05:53:42;16.30;99.90
22112;DHT22;11222;50.872;4.312;2022-09-09T05:56:12;16.20;99.90
22112;DHT22;11222;50.872;4.312;2022-09-09T05:58:40;16.10;99.90
22112;DHT22;11222;50.872;4.312;2022-09-09T06:01:08;16.10;99.90
22112;DHT22;11222;50.872;4.312;2022-09-09T06:03:37;16.10;99.90
22112;DHT22;11222;50.872;4.312;2022-09-09T06:06:05;16.20;99.90
22112;DHT22;11222;50.872;4.312;2022-09-09T06:08:35;16.20;99.90
22112;DHT22;11222;50.872;4.312;2022-09-09T06:11:07;16.30;99.90
22112;DHT22;11222;50.872;4.312;2022-09-09T06:13:33;16.50;99.90
22112;DHT22;11222;50.872;4.312;2022-09-09T06:15:59;16.60;99.90
22112;DHT22;11222;50.872;4.312;2022-09-09T06:18:25;16.70;99.90
22112;DHT22;11222;50.872;4.312;2022-09-09T06:20:59;16.70;99.90
22112;DHT22;11222;50.872;4.312;2022-09-09T06:23:26;16.70;99.90
22112;DHT22;11222;50.872;4.312;2022-09-09T06:26:04;16.60;99.90
22112;DHT22;11222;50.872;4.312;2022-09-09T06:28:34;16.60;99.90
22112;DHT22;11222;50.872;4.312;2022-09-09T06:31:02;16.60;99.90
22112;DHT22;11222;50.872;4.312;2022-09-09T06:33:34;16.60;99.90
22112;DHT22;11222;50.872;4.312;2022-09-09T06:36:01;16.70;99.90
22112;DHT22;11222;50.872;4.312;2022-09-09T06:38:27;16.80;99.90
22112;DHT22;11222;50.872;4.312;2022-09-09T06:40:57;16.80;99.90
22112;DHT22;11222;50.872;4.312;2022-09-09T06:43:25;16.80;99.90
22112;DHT22;11222;50.872;4.312;2022-09-09T06:45:58;16.80;99.90
22112;DHT22;11222;50.872;4.312;2022-09-09T06:48:25;16.70;99.90
22112;DHT22;11222;50.872;4.312;2022-09-09T06:51:05;16.60;99.90
22112;DHT22;11222;50.872;4.312;2022-09-09T06:53:35;16.70;99.90
22112;DHT22;11222;50.872;4.312;2022-09-09T06:56:03;16.80;99.90
22112;DHT22;11222;50.872;4.312;2022-09-09T06:58:42;16.80;99.90
22112;DHT22;11222;50.872;4.312;2022-09-09T07:01:11;16.80;99.90
22112;DHT22;11222;50.872;4.312;2022-09-09T07:03:39;16.80;99.90
22112;DHT22;11222;50.872;4.312;2022-09-09T07:06:05;16.90;99.90
22112;DHT22;11222;50.872;4.312;2022-09-09T07:08:31;17.00;99.90
22112;DHT22;11222;50.872;4.312;2022-09-09T07:11:04;17.00;99.90
22112;DHT22;11222;50.872;4.312;2022-09-09T07:13:30;17.00;99.90
22112;DHT22;11222;50.872;4.312;2022-09-09T07:16:09;17.00;99.90
22112;DHT22;11222;50.872;4.312;2022-09-09T07:18:36;17.10;99.90
22112;DHT22;11222;50.872;4.312;2022-09-09T07:21:02;17.00;99.90
22112;DHT22;11222;50.872;4.312;2022-09-09T07:23:29;17.00;99.90
22112;DHT22;11222;50.872;4.312;2022-09-09T07:25:56;17.00;99.90
22112;DHT22;11222;50.872;4.312;2022-09-09T07:28:23;17.10;99.90
22112;DHT22;11222;50.872;4.312;2022-09-09T07:31:00;17.10;99.90
22112;DHT22;11222;50.872;4.312;2022-09-09T07:33:30;17.20;99.90
22112;DHT22;11222;50.872;4.312;2022-09-09T07:36:07;17.10;99.90
22112;DHT22;11222;50.872;4.312;2022-09-09T07:38:44;17.10;99.90
22112;DHT22;11222;50.872;4.312;2022-09-09T07:41:13;17.00;99.90
22112;DHT22;11222;50.872;4.312;2022-09-09T07:43:40;16.80;99.90
22112;DHT22;11222;50.872;4.312;2022-09-09T07:46:10;16.80;99.90
22112;DHT22;11222;50.872;4.312;2022-09-09T07:48:36;16.90;99.90
22112;DHT22;11222;50.872;4.312;2022-09-09T07:51:11;17.00;99.90
22112;DHT22;11222;50.872;4.312;2022-09-09T07:53:37;17.40;99.90
22112;DHT22;11222;50.872;4.312;2022-09-09T07:56:09;17.40;99.90
22112;DHT22;11222;50.872;4.312;2022-09-09T07:58:36;17.50;99.90
22112;DHT22;11222;50.872;4.312;2022-09-09T08:01:11;17.40;99.90
22112;DHT22;11222;50.872;4.312;2022-09-09T08:03:37;17.60;99.90
22112;DHT22;11222;50.872;4.312;2022-09-09T08:06:06;17.60;99.90
22112;DHT22;11222;50.872;4.312;2022-09-09T08:08:33;17.60;99.90
22112;DHT22;11222;50.872;4.312;2022-09-09T08:11:07;17.70;99.90
22112;DHT22;11222;50.872;4.312;2022-09-09T08:13:44;17.70;99.90
22112;DHT22;11222;50.872;4.312;2022-09-09T08:16:13;17.80;99.90
22112;DHT22;11222;50.872;4.312;2022-09-09T08:18:39;17.90;99.90
22112;DHT22;11222;50.872;4.312;2022-09-09T08:23:32;17.70;99.90
22112;DHT22;11222;50.872;4.312;2022-09-09T08:26:11;17.60;99.90
22112;DHT22;11222;50.872;4.312;2022-09-09T08:28:37;17.50;99.90
22112;DHT22;11222;50.872;4.312;2022-09-09T08:31:30;17.60;99.90
22112;DHT22;11222;50.872;4.312;2022-09-09T08:33:57;17.50;99.90
22112;DHT22;11222;50.872;4.312;2022-09-09T08:36:27;17.40;99.90
22112;DHT22;11222;50.872;4.312;2022-09-09T08:38:54;17.30;99.90
22112;DHT22;11222;50.872;4.312;2022-09-09T08:52:48;17.00;99.90
22112;DHT22;11222;50.872;4.312;2022-09-09T08:58:19;17.20;99.90
22112;DHT22;11222;50.872;4.312;2022-09-09T09:11:38;17.10;99.90
22112;DHT22;11222;50.872;4.312;2022-09-09T09:14:24;17.10;99.90
22112;DHT22;11222;50.872;4.312;2022-09-09T09:19:24;17.30;99.90
22112;DHT22;11222;50.872;4.312;2022-09-09T09:30:31;17.50;99.90
22112;DHT22;11222;50.872;4.312;2022-09-09T09:33:05;17.30;99.90
22112;DHT22;11222;50.872;4.312;2022-09-09T09:35:31;17.20;99.90
22112;DHT22;11222;50.872;4.312;2022-09-09T09:37:57;17.20;99.90
22112;DHT22;11222;50.872;4.312;2022-09-09T09:40:26;17.20;99.90
22112;DHT22;11222;50.872;4.312;2022-09-09T09:43:00;17.20;99.90
22112;DHT22;11222;50.872;4.312;2022-09-09T09:45:27;17.20;99.90
22112;DHT22;11222;50.872;4.312;2022-09-09T09:48:03;17.20;99.90
22112;DHT22;11222;50.872;4.312;2022-09-09T09:50:29;17.30;99.90
22112;DHT22;11222;50.872;4.312;2022-09-09T09:53:00;17.20;99.90
22112;DHT22;11222;50.872;4.312;2022-09-09T09:55:28;17.20;99.90
22112;DHT22;11222;50.872;4.312;2022-09-09T09:58:06;17.20;99.90
22112;DHT22;11222;50.872;4.312;2022-09-09T10:00:33;17.30;99.90
22112;DHT22;11222;50.872;4.312;2022-09-09T10:03:01;17.30;99.90
22112;DHT22;11222;50.872;4.312;2022-09-09T10:05:29;17.30;99.90
22112;DHT22;11222;50.872;4.312;2022-09-09T10:13:54;17.60;99.90
22112;DHT22;11222;50.872;4.312;2022-09-09T10:19:37;18.00;99.90
22112;DHT22;11222;50.872;4.312;2022-09-09T10:33:19;18.40;99.90
22112;DHT22;11222;50.872;4.312;2022-09-09T10:38:59;18.50;99.90
22112;DHT22;11222;50.872;4.312;2022-09-09T10:41:50;18.50;99.90
22112;DHT22;11222;50.872;4.312;2022-09-09T10:44:24;18.70;99.90
22112;DHT22;11222;50.872;4.312;2022-09-09T10:53:21;19.20;99.90
22112;DHT22;11222;50.872;4.312;2022-09-09T10:55:53;19.00;99.90
22112;DHT22;11222;50.872;4.312;2022-09-09T10:58:59;18.90;99.90
22112;DHT22;11222;50.872;4.312;2022-09-09T11:01:36;19.10;99.90
22112;DHT22;11222;50.872;4.312;2022-09-09T11:04:17;19.10;99.90
22112;DHT22;11222;50.872;4.312;2022-09-09T11:06:49;18.90;99.90
22112;DHT22;11222;50.872;4.312;2022-09-09T11:09:21;19.00;99.90
22112;DHT22;11222;50.872;4.312;2022-09-09T11:11:53;18.90;99.90
22112;DHT22;11222;50.872;4.312;2022-09-09T11:14:22;18.90;99.90
22112;DHT22;11222;50.872;4.312;2022-09-09T11:17:04;18.90;99.90
22112;DHT22;11222;50.872;4.312;2022-09-09T11:21:58;19.20;99.90
22112;DHT22;11222;50.872;4.312;2022-09-09T11:25:01;19.10;99.90
22112;DHT22;11222;50.872;4.312;2022-09-09T11:27:39;19.10;99.90
22112;DHT22;11222;50.872;4.312;2022-09-09T11:35:45;18.80;99.90
22112;DHT22;11222;50.872;4.312;2022-09-09T11:41:05;18.80;99.90
22112;DHT22;11222;50.872;4.312;2022-09-09T11:43:33;18.70;99.90
22112;DHT22;11222;50.872;4.312;2022-09-09T11:46:03;18.60;99.90
22112;DHT22;11222;50.872;4.312;2022-09-09T11:48:36;18.70;99.90
22112;DHT22;11222;50.872;4.312;2022-09-09T11:51:06;18.70;99.90
22112;DHT22;11222;50.872;4.312;2022-09-09T11:53:33;18.70;99.90
22112;DHT22;11222;50.872;4.312;2022-09-09T11:56:09;18.60;99.90
22112;DHT22;11222;50.872;4.312;2022-09-09T11:58:43;18.70;99.90
22112;DHT22;11222;50.872;4.312;2022-09-09T12:01:28;18.80;99.90
22112;DHT22;11222;50.872;4.312;2022-09-09T12:04:11;18.80;99.90
22112;DHT22;11222;50.872;4.312;2022-09-09T12:06:46;18.60;99.90
22112;DHT22;11222;50.872;4.312;2022-09-09T12:12:26;18.70;99.90
22112;DHT22;11222;50.872;4.312;2022-09-09T12:17:28;18.50;99.90
22112;DHT22;11222;50.872;4.312;2022-09-09T12:20:20;18.60;99.90
22112;DHT22;11222;50.872;4.312;2022-09-09T12:23:09;18.70;99.90
22112;DHT22;11222;50.872;4.312;2022-09-09T12:29:14;18.80;99.90
22112;DHT22;11222;50.872;4.312;2022-09-09T12:31:51;18.90;99.90
22112;DHT22;11222;50.872;4.312;2022-09-09T12:36:50;18.90;99.90
22112;DHT22;11222;50.872;4.312;2022-09-09T12:39:45;19.00;99.90
22112;DHT22;11222;50.872;4.312;2022-09-09T12:42:20;19.00;99.90
22112;DHT22;11222;50.872;4.312;2022-09-09T12:45:00;19.10;99.90
22112;DHT22;11222;50.872;4.312;2022-09-09T12:48:08;19.30;99.90
22112;DHT22;11222;50.872;4.312;2022-09-09T12:50:43;19.60;99.90
22112;DHT22;11222;50.872;4.312;2022-09-09T12:56:01;19.50;99.90
22112;DHT22;11222;50.872;4.312;2022-09-09T12:58:29;19.60;99.90
22112;DHT22;11222;50.872;4.312;2022-09-09T13:00:59;19.50;99.90
22112;DHT22;11222;50.872;4.312;2022-09-09T13:03:27;19.70;99.90
22112;DHT22;11222;50.872;4.312;2022-09-09T13:05:53;19.70;99.90
22112;DHT22;11222;50.872;4.312;2022-09-09T13:08:19;19.60;99.90
22112;DHT22;11222;50.872;4.312;2022-09-09T13:13:27;19.60;99.90
22112;DHT22;11222;50.872;4.312;2022-09-09T13:15:59;19.60;99.90
22112;DHT22;11222;50.872;4.312;2022-09-09T13:18:34;19.70;99.90
22112;DHT22;11222;50.872;4.312;2022-09-09T13:21:01;19.60;99.90
22112;DHT22;11222;50.872;4.312;2022-09-09T13:23:30;19.50;99.90
22112;DHT22;11222;50.872;4.312;2022-09-09T13:26:39;19.60;99.90
22112;DHT22;11222;50.872;4.312;2022-09-09T13:28:47;19.40;99.90
22112;DHT22;11222;50.872;4.312;2022-09-09T13:31:42;19.40;99.90
22112;DHT22;11222;50.872;4.312;2022-09-09T13:34:33;19.50;99.90
22112;DHT22;11222;50.872;4.312;2022-09-09T13:37:26;19.70;99.90
22112;DHT22;11222;50.872;4.312;2022-09-09T13:39:54;19.80;99.90
22112;DHT22;11222;50.872;4.312;2022-09-09T13:42:26;19.90;99.90
22112;DHT22;11222;50.872;4.312;2022-09-09T13:44:53;20.00;99.90
22112;DHT22;11222;50.872;4.312;2022-09-09T13:47:41;20.20;99.90
22112;DHT22;11222;50.872;4.312;2022-09-09T13:50:26;20.40;99.90
22112;DHT22;11222;50.872;4.312;2022-09-09T13:52:54;20.60;99.90
22112;DHT22;11222;50.872;4.312;2022-09-09T13:55:22;20.60;99.90
22112;DHT22;11222;50.872;4.312;2022-09-09T14:00:18;20.50;99.90
22112;DHT22;11222;50.872;4.312;2022-09-09T14:02:43;20.60;99.90
22112;DHT22;11222;50.872;4.312;2022-09-09T14:05:10;20.70;99.90
22112;DHT22;11222;50.872;4.312;2022-09-09T14:07:38;20.70;99.90
22112;DHT22;11222;50.872;4.312;2022-09-09T14:10:05;20.70;99.90
22112;DHT22;11222;50.872;4.312;2022-09-09T14:12:30;20.60;99.90
22112;DHT22;11222;50.872;4.312;2022-09-09T14:14:56;20.70;99.90
22112;DHT22;11222;50.872;4.312;2022-09-09T14:17:22;20.50;99.90
22112;DHT22;11222;50.872;4.312;2022-09-09T14:19:48;20.40;99.90
22112;DHT22;11222;50.872;4.312;2022-09-09T14:22:14;20.30;99.90
22112;DHT22;11222;50.872;4.312;2022-09-09T14:24:40;20.30;99.90
22112;DHT22;11222;50.872;4.312;2022-09-09T14:27:06;20.30;99.90
22112;DHT22;11222;50.872;4.312;2022-09-09T14:29:32;20.40;99.90
22112;DHT22;11222;50.872;4.312;2022-09-09T14:31:58;20.30;99.90
22112;DHT22;11222;50.872;4.312;2022-09-09T14:34:26;20.50;99.90
22112;DHT22;11222;50.872;4.312;2022-09-09T14:36:52;20.60;99.90
22112;DHT22;11222;50.872;4.312;2022-09-09T14:39:17;20.50;99.90
22112;DHT22;11222;50.872;4.312;2022-09-09T14:41:43;20.30;99.90
22112;DHT22;11222;50.872;4.312;2022-09-09T14:44:09;20.20;99.90
22112;DHT22;11222;50.872;4.312;2022-09-09T14:46:35;20.10;99.90
22112;DHT22;11222;50.872;4.312;2022-09-09T14:49:01;20.10;99.90
22112;DHT22;11222;50.872;4.312;2022-09-09T14:51:27;20.20;99.90
22112;DHT22;11222;50.872;4.312;2022-09-09T14:53:55;20.30;99.90
22112;DHT22;11222;50.872;4.312;2022-09-09T14:56:24;20.40;99.90
22112;DHT22;11222;50.872;4.312;2022-09-09T14:58:50;20.50;99.90
22112;DHT22;11222;50.872;4.312;2022-09-09T15:01:19;20.70;99.90
22112;DHT22;11222;50.872;4.312;2022-09-09T15:03:59;20.70;99.90
22112;DHT22;11222;50.872;4.312;2022-09-09T15:06:27;20.50;99.90
22112;DHT22;11222;50.872;4.312;2022-09-09T15:08:53;20.60;99.90
22112;DHT22;11222;50.872;4.312;2022-09-09T15:11:20;20.40;99.90
22112;DHT22;11222;50.872;4.312;2022-09-09T15:13:46;20.40;99.90
22112;DHT22;11222;50.872;4.312;2022-09-09T15:16:17;20.50;99.90
22112;DHT22;11222;50.872;4.312;2022-09-09T15:18:44;20.60;99.90
22112;DHT22;11222;50.872;4.312;2022-09-09T15:21:12;20.60;99.90
22112;DHT22;11222;50.872;4.312;2022-09-09T15:23:38;20.60;99.90
22112;DHT22;11222;50.872;4.312;2022-09-09T15:26:05;20.50;99.90
22112;DHT22;11222;50.872;4.312;2022-09-09T15:28:32;20.30;99.90
22112;DHT22;11222;50.872;4.312;2022-09-09T15:31:06;20.20;99.90
22112;DHT22;11222;50.872;4.312;2022-09-09T15:33:33;20.10;99.90
22112;DHT22;11222;50.872;4.312;2022-09-09T15:35:59;20.10;99.90
22112;DHT22;11222;50.872;4.312;2022-09-09T15:38:25;20.00;99.90
22112;DHT22;11222;50.872;4.312;2022-09-09T15:40:55;20.10;99.90
22112;DHT22;11222;50.872;4.312;2022-09-09T15:43:22;20.10;99.90
22112;DHT22;11222;50.872;4.312;2022-09-09T15:45:53;20.20;99.90
22112;DHT22;11222;50.872;4.312;2022-09-09T15:48:30;20.30;99.90
22112;DHT22;11222;50.872;4.312;2022-09-09T15:51:04;20.20;99.90
22112;DHT22;11222;50.872;4.312;2022-09-09T15:53:30;20.00;99.90
22112;DHT22;11222;50.872;4.312;2022-09-09T15:55:58;19.90;99.90
22112;DHT22;11222;50.872;4.312;2022-09-09T15:58:24;19.90;99.90
22112;DHT22;11222;50.872;4.312;2022-09-09T16:00:50;20.00;99.90
22112;DHT22;11222;50.872;4.312;2022-09-09T16:03:16;20.10;99.90
22112;DHT22;11222;50.872;4.312;2022-09-09T16:05:42;20.20;99.90
22112;DHT22;11222;50.872;4.312;2022-09-09T16:08:09;20.20;99.90
22112;DHT22;11222;50.872;4.312;2022-09-09T16:10:35;20.20;99.90
22112;DHT22;11222;50.872;4.312;2022-09-09T16:13:01;20.10;99.90
22112;DHT22;11222;50.872;4.312;2022-09-09T16:15:28;20.10;99.90
22112;DHT22;11222;50.872;4.312;2022-09-09T16:17:53;20.00;99.90
22112;DHT22;11222;50.872;4.312;2022-09-09T16:20:19;19.90;99.90
22112;DHT22;11222;50.872;4.312;2022-09-09T16:22:45;19.70;99.90
22112;DHT22;11222;50.872;4.312;2022-09-09T16:25:11;19.60;99.90
22112;DHT22;11222;50.872;4.312;2022-09-09T16:27:37;19.50;99.90
22112;DHT22;11222;50.872;4.312;2022-09-09T16:30:03;19.40;99.90
22112;DHT22;11222;50.872;4.312;2022-09-09T16:32:29;19.50;99.90
22112;DHT22;11222;50.872;4.312;2022-09-09T16:34:56;19.50;99.90
22112;DHT22;11222;50.872;4.312;2022-09-09T16:37:21;19.50;99.90
22112;DHT22;11222;50.872;4.312;2022-09-09T16:39:47;19.40;99.90
22112;DHT22;11222;50.872;4.312;2022-09-09T16:42:13;19.40;99.90
22112;DHT22;11222;50.872;4.312;2022-09-09T16:44:39;19.50;99.90
22112;DHT22;11222;50.872;4.312;2022-09-09T16:47:05;19.60;99.90
22112;DHT22;11222;50.872;4.312;2022-09-09T16:49:30;19.60;99.90
22112;DHT22;11222;50.872;4.312;2022-09-09T16:51:59;19.70;99.90
22112;DHT22;11222;50.872;4.312;2022-09-09T16:54:25;19.80;99.90
22112;DHT22;11222;50.872;4.312;2022-09-09T16:56:52;19.90;99.90
22112;DHT22;11222;50.872;4.312;2022-09-09T16:59:19;19.80;99.90
22112;DHT22;11222;50.872;4.312;2022-09-09T17:01:47;19.80;99.90
22112;DHT22;11222;50.872;4.312;2022-09-09T17:04:16;19.80;99.90
22112;DHT22;11222;50.872;4.312;2022-09-09T17:06:47;19.80;99.90
22112;DHT22;11222;50.872;4.312;2022-09-09T17:09:13;19.70;99.90
22112;DHT22;11222;50.872;4.312;2022-09-09T17:11:39;19.70;99.90
22112;DHT22;11222;50.872;4.312;2022-09-09T17:14:06;19.50;99.90
22112;DHT22;11222;50.872;4.312;2022-09-09T17:16:34;19.50;99.90
22112;DHT22;11222;50.872;4.312;2022-09-09T17:19:01;19.40;99.90
22112;DHT22;11222;50.872;4.312;2022-09-09T17:21:28;19.50;99.90
22112;DHT22;11222;50.872;4.312;2022-09-09T17:23:55;19.40;99.90
22112;DHT22;11222;50.872;4.312;2022-09-09T17:26:24;19.20;99.90
22112;DHT22;11222;50.872;4.312;2022-09-09T17:28:52;19.10;99.90
22112;DHT22;11222;50.872;4.312;2022-09-09T17:31:18;19.00;99.90
22112;DHT22;11222;50.872;4.312;2022-09-09T17:33:48;18.90;99.90
22112;DHT22;11222;50.872;4.312;2022-09-09T17:36:17;18.90;99.90
22112;DHT22;11222;50.872;4.312;2022-09-09T17:38:44;18.80;99.90
22112;DHT22;11222;50.872;4.312;2022-09-09T17:41:16;18.80;99.90
22112;DHT22;11222;50.872;4.312;2022-09-09T17:43:42;18.70;99.90
22112;DHT22;11222;50.872;4.312;2022-09-09T17:46:17;18.60;99.90
22112;DHT22;11222;50.872;4.312;2022-09-09T17:48:48;18.60;99.90
22112;DHT22;11222;50.872;4.312;2022-09-09T17:51:18;18.60;99.90
22112;DHT22;11222;50.872;4.312;2022-09-09T17:53:51;18.50;99.90
22112;DHT22;11222;50.872;4.312;2022-09-09T17:56:19;18.50;99.90
22112;DHT22;11222;50.872;4.312;2022-09-09T17:58:46;18.40;99.90
22112;DHT22;11222;50.872;4.312;2022-09-09T18:01:15;18.30;99.90
22112;DHT22;11222;50.872;4.312;2022-09-09T18:03:42;18.30;99.90
22112;DHT22;11222;50.872;4.312;2022-09-09T18:06:11;18.20;99.90
22112;DHT22;11222;50.872;4.312;2022-09-09T18:08:48;18.20;99.90
22112;DHT22;11222;50.872;4.312;2022-09-09T18:11:14;18.10;99.90
22112;DHT22;11222;50.872;4.312;2022-09-09T18:13:40;18.10;99.90
22112;DHT22;11222;50.872;4.312;2022-09-09T18:16:08;18.00;99.90
22112;DHT22;11222;50.872;4.312;2022-09-09T18:18:35;18.00;99.90